Time;durP1;ratioP1;P1;durP2;ratioP2;P2;SDS_P1;SDS_P2;PMS_P1;PMS_P2;Temp;Humidity;BMP_temperature;BMP_pressure;BME280_temperature;BME280_humidity;BME280_pressure;Samples;Min_cycle;Max_cycle;Signal;HPM_P1;HPM_P2
2023/03/10 00:00:31;;;;;;;19.65;14.57;;;;;;;;;;5138146;27;20343;-71
2023/03/10 00:02:58;;;;;;;16.30;12.48;;;;;;;;;;5136954;27;20244;-71
2023/03/10 00:05:25;;;;;;;21.25;14.82;;;;;;;;;;5137324;27;20184;-71
2023/03/10 00:07:52;;;;;;;24.15;16.13;;;;;;;;;;5137145;27;20188;-71
2023/03/10 00:10:20;;;;;;;24.17;15.32;;;;;;;;;;5137141;27;20186;-71
2023/03/10 00:12:47;;;;;;;20.63;14.75;;;;;;;;;;5137489;27;20628;-68
2023/03/10 00:15:15;;;;;;;21.30;14.23;;;;;;;;;;5137138;27;20201;-71
2023/03/10 00:17:42;;;;;;;21.88;15.00;;;;;;;;;;5137163;27;20219;-70
2023/03/10 00:20:11;;;;;;;18.80;14.60;;;;;;;;;;5137947;27;20190;-70
2023/03/10 00:22:38;;;;;;;21.88;14.95;;;;;;;;;;5137327;27;20193;-70
2023/03/10 00:25:06;;;;;;;19.17;14.10;;;;;;;;;;5137425;27;20199;-70
2023/03/10 00:27:33;;;;;;;19.35;14.52;;;;;;;;;;5136781;27;20648;-70
2023/03/10 00:30:01;;;;;;;20.77;13.60;;;;;;;;;;5136838;27;20195;-70
2023/03/10 00:32:29;;;;;;;20.23;13.75;;;;;;;;;;5137021;27;20192;-70
2023/03/10 00:34:56;;;;;;;19.23;14.02;;;;;;;;;;5137349;27;20197;-70
2023/03/10 00:37:23;;;;;;;19.17;13.60;;;;;;;;;;5136993;27;20212;-70
2023/03/10 00:39:51;;;;;;;19.50;14.90;;;;;;;;;;5136987;27;20205;-70
2023/03/10 00:42:19;;;;;;;21.15;13.95;;;;;;;;;;5136485;27;20199;-70
2023/03/10 00:44:46;;;;;;;18.88;13.13;;;;;;;;;;5137248;27;20198;-70
2023/03/10 00:47:13;;;;;;;21.27;14.82;;;;;;;;;;5137046;27;20217;-70
2023/03/10 00:49:42;;;;;;;16.05;13.60;;;;;;;;;;5136376;27;20192;-70
2023/03/10 00:52:09;;;;;;;19.35;13.35;;;;;;;;;;5136304;27;20194;-70
2023/03/10 00:54:39;;;;;;;19.80;13.13;;;;;;;;;;5136759;27;20192;-69
2023/03/10 00:57:06;;;;;;;20.30;15.60;;;;;;;;;;5136427;27;20219;-70
2023/03/10 00:59:34;;;;;;;20.15;14.18;;;;;;;;;;5136600;27;20190;-69
2023/03/10 01:02:01;;;;;;;20.70;14.00;;;;;;;;;;5136073;27;20192;-70
2023/03/10 01:04:28;;;;;;;16.13;13.15;;;;;;;;;;5136016;27;20223;-70
2023/03/10 01:06:57;;;;;;;19.88;13.88;;;;;;;;;;5136307;27;20545;-70
2023/03/10 01:09:24;;;;;;;20.60;14.45;;;;;;;;;;5136342;27;20195;-70
2023/03/10 01:11:51;;;;;;;20.55;13.07;;;;;;;;;;5136230;27;20199;-71
2023/03/10 01:14:18;;;;;;;22.52;15.23;;;;;;;;;;5135989;27;20295;-70
2023/03/10 01:16:45;;;;;;;22.83;15.77;;;;;;;;;;5136173;27;20247;-70
2023/03/10 01:19:13;;;;;;;20.98;14.05;;;;;;;;;;5136217;27;20192;-70
2023/03/10 01:21:40;;;;;;;20.77;14.98;;;;;;;;;;5136193;27;20197;-70
2023/03/10 01:24:09;;;;;;;22.13;16.75;;;;;;;;;;5136125;27;20242;-70
2023/03/10 01:26:36;;;;;;;19.08;14.95;;;;;;;;;;5135736;27;20198;-70
2023/03/10 01:29:03;;;;;;;21.98;15.63;;;;;;;;;;5135584;27;20190;-70
2023/03/10 01:31:30;;;;;;;23.25;16.38;;;;;;;;;;5136306;27;20616;-70
2023/03/10 01:33:57;;;;;;;25.73;16.33;;;;;;;;;;5135747;27;20214;-70
2023/03/10 01:36:26;;;;;;;25.90;15.65;;;;;;;;;;5135913;27;20196;-70
2023/03/10 01:38:53;;;;;;;22.20;15.40;;;;;;;;;;5135524;27;20254;-70
2023/03/10 01:41:22;;;;;;;21.42;14.68;;;;;;;;;;5135734;27;20199;-70
2023/03/10 01:43:50;;;;;;;21.90;14.82;;;;;;;;;;5135796;27;20188;-70
2023/03/10 01:46:32;;;;;;;22.45;15.05;;;;;;;;;;5135311;27;20198;-70
2023/03/10 01:49:01;;;;;;;21.98;15.50;;;;;;;;;;5135267;27;20184;-70
2023/03/10 01:51:30;;;;;;;20.10;14.60;;;;;;;;;;5135644;27;20184;-69
2023/03/10 01:53:57;;;;;;;23.38;16.02;;;;;;;;;;5135509;27;20184;-69
2023/03/10 01:56:26;;;;;;;26.08;17.63;;;;;;;;;;5135082;27;20191;-69
2023/03/10 01:58:53;;;;;;;23.42;14.60;;;;;;;;;;5135151;27;20206;-70
2023/03/10 02:01:20;;;;;;;23.45;16.05;;;;;;;;;;5135591;27;20282;-70
2023/03/10 02:03:50;;;;;;;31.30;16.48;;;;;;;;;;5134656;27;20222;-70
2023/03/10 02:06:19;;;;;;;23.83;16.27;;;;;;;;;;5134975;27;20195;-70
2023/03/10 02:08:48;;;;;;;29.35;16.45;;;;;;;;;;5134947;27;20194;-70
2023/03/10 02:11:16;;;;;;;27.00;17.85;;;;;;;;;;5135121;27;20190;-70
2023/03/10 02:13:44;;;;;;;19.23;13.50;;;;;;;;;;5134672;27;20282;-70
2023/03/10 02:16:12;;;;;;;15.88;11.50;;;;;;;;;;5135555;27;20195;-70
2023/03/10 02:18:39;;;;;;;13.10;9.07;;;;;;;;;;5134510;27;20210;-69
2023/03/10 02:21:10;;;;;;;15.20;8.85;;;;;;;;;;5134669;27;20187;-70
2023/03/10 02:23:40;;;;;;;10.55;7.72;;;;;;;;;;5135208;27;20196;-69
2023/03/10 02:26:11;;;;;;;10.98;8.80;;;;;;;;;;5134916;27;20178;-69
2023/03/10 02:28:40;;;;;;;9.77;8.15;;;;;;;;;;5134943;27;20195;-69
2023/03/10 02:31:07;;;;;;;11.32;8.00;;;;;;;;;;5134402;27;20192;-69
2023/03/10 02:33:36;;;;;;;9.93;8.50;;;;;;;;;;5134662;27;20195;-69
2023/03/10 02:36:04;;;;;;;8.95;7.55;;;;;;;;;;5134647;27;20190;-69
2023/03/10 02:38:31;;;;;;;11.38;7.60;;;;;;;;;;5134463;27;20223;-69
2023/03/10 02:40:58;;;;;;;9.50;7.80;;;;;;;;;;5134572;27;20206;-69
2023/03/10 02:43:27;;;;;;;9.90;8.10;;;;;;;;;;5134170;27;20189;-69
2023/03/10 02:45:56;;;;;;;10.23;7.47;;;;;;;;;;5134746;27;20197;-69
2023/03/10 02:48:24;;;;;;;9.55;8.25;;;;;;;;;;5134523;27;20196;-69
2023/03/10 02:50:52;;;;;;;9.00;8.10;;;;;;;;;;5134128;27;20193;-69
2023/03/10 02:53:20;;;;;;;8.43;6.63;;;;;;;;;;5134273;27;20195;-69
2023/03/10 02:55:48;;;;;;;9.20;7.43;;;;;;;;;;5134075;27;20203;-69
2023/03/10 02:58:15;;;;;;;7.90;6.80;;;;;;;;;;5134050;27;20209;-71
2023/03/10 03:00:43;;;;;;;9.18;7.90;;;;;;;;;;5134024;27;20205;-69
2023/03/10 03:03:12;;;;;;;8.57;7.65;;;;;;;;;;5134212;27;20199;-69
2023/03/10 03:05:39;;;;;;;9.60;7.65;;;;;;;;;;5134167;27;20212;-69
2023/03/10 03:08:07;;;;;;;8.88;7.97;;;;;;;;;;5134449;27;20225;-69
2023/03/10 03:10:35;;;;;;;9.63;8.38;;;;;;;;;;5134016;27;20185;-69
2023/03/10 03:13:02;;;;;;;10.60;8.63;;;;;;;;;;5133671;27;20543;-69
2023/03/10 03:15:30;;;;;;;10.57;9.48;;;;;;;;;;5134033;27;20191;-69
2023/03/10 03:17:57;;;;;;;9.82;8.20;;;;;;;;;;5134017;28;20215;-69
2023/03/10 03:20:26;;;;;;;12.07;8.50;;;;;;;;;;5133938;28;20200;-68
2023/03/10 03:22:53;;;;;;;10.20;8.57;;;;;;;;;;5134219;28;20615;-68
2023/03/10 03:25:21;;;;;;;10.13;7.93;;;;;;;;;;5133928;28;20191;-69
2023/03/10 03:27:49;;;;;;;10.15;9.00;;;;;;;;;;5133659;28;20635;-69
2023/03/10 03:30:18;;;;;;;9.38;8.35;;;;;;;;;;5133909;28;20194;-69
2023/03/10 03:32:45;;;;;;;13.07;9.45;;;;;;;;;;5133805;28;20190;-69
2023/03/10 03:35:14;;;;;;;10.15;8.80;;;;;;;;;;5133535;28;20679;-69
2023/03/10 03:37:43;;;;;;;13.38;9.90;;;;;;;;;;5133786;28;20563;-69
2023/03/10 03:40:12;;;;;;;13.27;9.70;;;;;;;;;;5133953;28;20256;-68
2023/03/10 03:42:39;;;;;;;11.02;9.70;;;;;;;;;;5133883;27;20238;-69
2023/03/10 03:45:07;;;;;;;13.18;8.90;;;;;;;;;;5133674;28;20195;-69
2023/03/10 03:47:35;;;;;;;11.25;8.98;;;;;;;;;;5133777;28;20189;-69
2023/03/10 03:50:02;;;;;;;12.82;10.50;;;;;;;;;;5133408;28;20191;-69
2023/03/10 03:52:29;;;;;;;13.50;10.13;;;;;;;;;;5133493;28;20197;-69
2023/03/10 03:54:57;;;;;;;13.43;10.02;;;;;;;;;;5133354;28;20186;-69
2023/03/10 03:57:25;;;;;;;12.35;9.95;;;;;;;;;;5134192;28;20190;-68
2023/03/10 03:59:53;;;;;;;15.88;10.35;;;;;;;;;;5133569;28;20223;-68
2023/03/10 04:02:20;;;;;;;13.27;9.40;;;;;;;;;;5133710;28;20187;-69
2023/03/10 04:04:47;;;;;;;11.95;10.40;;;;;;;;;;5133595;28;20226;-69
2023/03/10 04:07:15;;;;;;;14.38;10.50;;;;;;;;;;5133208;28;20195;-69
2023/03/10 04:09:43;;;;;;;13.98;10.15;;;;;;;;;;5133562;28;20255;-67
2023/03/10 04:12:11;;;;;;;14.63;10.13;;;;;;;;;;5133294;28;20189;-67
2023/03/10 04:14:38;;;;;;;13.02;10.10;;;;;;;;;;5133481;28;20189;-68
2023/03/10 04:17:06;;;;;;;14.25;9.88;;;;;;;;;;5133505;28;20186;-68
2023/03/10 04:19:33;;;;;;;15.65;10.60;;;;;;;;;;5133026;28;20258;-68
2023/03/10 04:22:00;;;;;;;13.38;11.15;;;;;;;;;;5133906;28;20756;-68
2023/03/10 04:24:27;;;;;;;18.80;12.02;;;;;;;;;;5134210;27;20630;-68
2023/03/10 04:26:55;;;;;;;13.55;9.88;;;;;;;;;;5134638;27;20226;-68
2023/03/10 04:29:23;;;;;;;15.65;10.88;;;;;;;;;;5136314;27;20215;-69
2023/03/10 04:31:51;;;;;;;14.57;11.13;;;;;;;;;;5136008;27;20192;-68
2023/03/10 04:34:18;;;;;;;16.10;11.77;;;;;;;;;;5136567;27;20192;-69
2023/03/10 04:36:45;;;;;;;19.13;11.30;;;;;;;;;;5135781;27;20197;-70
2023/03/10 04:39:12;;;;;;;15.95;11.55;;;;;;;;;;5136299;27;20336;-68
2023/03/10 04:41:39;;;;;;;16.77;10.35;;;;;;;;;;5136011;27;20197;-69
2023/03/10 04:44:07;;;;;;;16.13;10.90;;;;;;;;;;5136285;27;20221;-69
2023/03/10 04:46:35;;;;;;;17.38;10.88;;;;;;;;;;5136276;27;20224;-68
2023/03/10 04:49:03;;;;;;;15.48;11.55;;;;;;;;;;5136398;27;20222;-69
2023/03/10 04:51:30;;;;;;;19.55;11.15;;;;;;;;;;5135700;27;20227;-69
2023/03/10 04:53:58;;;;;;;17.83;11.57;;;;;;;;;;5136144;27;20194;-68
2023/03/10 04:56:26;;;;;;;15.70;10.32;;;;;;;;;;5136120;27;20586;-68
2023/03/10 04:58:53;;;;;;;12.45;9.40;;;;;;;;;;5135702;27;20230;-69
2023/03/10 05:01:21;;;;;;;16.63;11.30;;;;;;;;;;5135801;27;20196;-67
2023/03/10 05:03:49;;;;;;;14.23;10.80;;;;;;;;;;5135536;27;20221;-68
2023/03/10 05:06:18;;;;;;;15.40;10.95;;;;;;;;;;5135748;27;20195;-68
2023/03/10 05:08:45;;;;;;;17.58;10.50;;;;;;;;;;5135997;27;20203;-68
2023/03/10 05:11:13;;;;;;;13.52;10.90;;;;;;;;;;5135333;27;20198;-68
2023/03/10 05:13:40;;;;;;;17.60;10.77;;;;;;;;;;5135779;27;20636;-68
2023/03/10 05:16:12;;;;;;;17.50;11.77;;;;;;;;;;5136008;27;20268;-68
2023/03/10 05:18:39;;;;;;;19.42;13.27;;;;;;;;;;5135787;27;20204;-68
2023/03/10 05:21:08;;;;;;;16.58;11.65;;;;;;;;;;5136207;27;20194;-68
2023/03/10 05:23:35;;;;;;;16.40;11.85;;;;;;;;;;5136002;27;20202;-67
2023/03/10 05:26:04;;;;;;;15.05;11.63;;;;;;;;;;5136156;27;20190;-68
2023/03/10 05:28:31;;;;;;;15.57;11.35;;;;;;;;;;5134895;27;20206;-68
2023/03/10 05:30:58;;;;;;;19.70;12.20;;;;;;;;;;5135082;27;20187;-68
2023/03/10 05:33:25;;;;;;;26.05;13.27;;;;;;;;;;5135252;27;20200;-66
2023/03/10 05:35:53;;;;;;;21.25;13.52;;;;;;;;;;5135296;27;20193;-66
2023/03/10 05:38:21;;;;;;;25.23;14.80;;;;;;;;;;5135467;27;20188;-67
2023/03/10 05:40:48;;;;;;;27.10;13.02;;;;;;;;;;5135391;27;20198;-67
2023/03/10 05:43:15;;;;;;;27.67;15.70;;;;;;;;;;5135866;27;20531;-66
2023/03/10 05:45:43;;;;;;;28.55;14.52;;;;;;;;;;5135425;27;20277;-66
2023/03/10 05:48:10;;;;;;;19.08;12.20;;;;;;;;;;5135199;27;20186;-67
2023/03/10 05:50:37;;;;;;;21.88;12.75;;;;;;;;;;5134975;27;20193;-67
2023/03/10 05:53:04;;;;;;;25.75;14.13;;;;;;;;;;5134925;27;20549;-67
2023/03/10 05:55:33;;;;;;;24.02;13.80;;;;;;;;;;5135336;27;20193;-66
2023/03/10 05:58:00;;;;;;;22.65;14.23;;;;;;;;;;5135099;27;20193;-66
2023/03/10 06:00:27;;;;;;;21.35;13.02;;;;;;;;;;5135000;27;20210;-67
2023/03/10 06:02:54;;;;;;;22.60;13.30;;;;;;;;;;5134795;27;20283;-69
2023/03/10 06:05:22;;;;;;;22.85;12.98;;;;;;;;;;5134844;27;20274;-65
2023/03/10 06:07:49;;;;;;;23.30;14.02;;;;;;;;;;5134719;27;20235;-65
2023/03/10 06:10:16;;;;;;;23.77;13.25;;;;;;;;;;5134640;27;20209;-66
2023/03/10 06:12:44;;;;;;;21.25;12.82;;;;;;;;;;5134527;27;20206;-66
2023/03/10 06:15:12;;;;;;;18.02;11.98;;;;;;;;;;5134893;27;20211;-66
2023/03/10 06:17:40;;;;;;;25.00;14.15;;;;;;;;;;5134538;27;20615;-66
2023/03/10 06:20:07;;;;;;;21.02;13.88;;;;;;;;;;5134401;27;20322;-66
2023/03/10 06:22:35;;;;;;;24.33;13.40;;;;;;;;;;5134541;27;20198;-66
2023/03/10 06:25:02;;;;;;;25.90;15.70;;;;;;;;;;5134469;27;20190;-66
2023/03/10 06:27:30;;;;;;;22.80;13.50;;;;;;;;;;5134767;27;20545;-66
2023/03/10 06:29:58;;;;;;;21.77;12.77;;;;;;;;;;5134676;27;20591;-66
2023/03/10 06:32:26;;;;;;;25.83;14.15;;;;;;;;;;5134392;27;20192;-66
2023/03/10 06:34:53;;;;;;;22.70;14.40;;;;;;;;;;5134905;27;20190;-66
2023/03/10 06:37:20;;;;;;;24.65;13.75;;;;;;;;;;5134198;27;20192;-66
2023/03/10 06:39:47;;;;;;;26.40;15.88;;;;;;;;;;5134098;27;20309;-67
2023/03/10 06:42:14;;;;;;;28.27;15.80;;;;;;;;;;5134004;27;20669;-66
2023/03/10 06:44:41;;;;;;;25.27;15.98;;;;;;;;;;5134253;27;20278;-67
2023/03/10 06:47:10;;;;;;;28.13;14.02;;;;;;;;;;5133569;27;20191;-67
2023/03/10 06:49:37;;;;;;;27.77;15.75;;;;;;;;;;5134562;27;20194;-66
2023/03/10 06:52:05;;;;;;;25.52;14.30;;;;;;;;;;5134259;27;20189;-66
2023/03/10 06:54:32;;;;;;;23.65;14.90;;;;;;;;;;5133787;27;20194;-67
2023/03/10 06:56:59;;;;;;;25.05;13.82;;;;;;;;;;5134229;27;20336;-66
2023/03/10 06:59:26;;;;;;;22.67;14.35;;;;;;;;;;5134127;27;20213;-66
2023/03/10 07:01:53;;;;;;;24.83;13.57;;;;;;;;;;5134309;27;20194;-67
2023/03/10 07:04:22;;;;;;;22.77;12.90;;;;;;;;;;5133834;27;20219;-66
2023/03/10 07:06:50;;;;;;;21.23;13.13;;;;;;;;;;5134111;27;20245;-67
2023/03/10 07:09:18;;;;;;;20.95;12.60;;;;;;;;;;5134304;27;20191;-67
2023/03/10 07:11:45;;;;;;;23.50;14.07;;;;;;;;;;5133922;27;20190;-66
2023/03/10 07:14:12;;;;;;;19.58;12.00;;;;;;;;;;5133652;27;20185;-67
2023/03/10 07:16:40;;;;;;;21.27;12.40;;;;;;;;;;5133634;27;20203;-67
2023/03/10 07:19:07;;;;;;;20.58;13.95;;;;;;;;;;5133700;27;20226;-66
2023/03/10 07:21:35;;;;;;;22.27;12.95;;;;;;;;;;5134085;28;20193;-66
2023/03/10 07:24:02;;;;;;;18.17;11.90;;;;;;;;;;5133377;28;20287;-66
2023/03/10 07:26:30;;;;;;;20.35;13.00;;;;;;;;;;5133414;28;20275;-66
2023/03/10 07:28:57;;;;;;;18.55;11.63;;;;;;;;;;5112780;28;20639;-66
2023/03/10 07:31:25;;;;;;;20.67;12.68;;;;;;;;;;5112933;28;20198;-66
2023/03/10 07:33:52;;;;;;;21.08;12.90;;;;;;;;;;5113131;28;20191;-66
2023/03/10 07:36:19;;;;;;;21.10;12.77;;;;;;;;;;5113284;28;20195;-66
2023/03/10 07:38:48;;;;;;;19.55;12.85;;;;;;;;;;5112846;28;20198;-66
2023/03/10 07:41:16;;;;;;;22.73;12.77;;;;;;;;;;5113340;28;20546;-66
2023/03/10 07:43:43;;;;;;;20.80;13.30;;;;;;;;;;5112952;28;20191;-66
2023/03/10 07:46:12;;;;;;;20.27;13.05;;;;;;;;;;5113158;28;20187;-66
2023/03/10 07:48:39;;;;;;;20.50;12.98;;;;;;;;;;5112983;28;20282;-66
2023/03/10 07:51:07;;;;;;;19.90;12.40;;;;;;;;;;5112980;28;20285;-66
2023/03/10 07:53:34;;;;;;;22.65;13.43;;;;;;;;;;5112705;28;20661;-67
2023/03/10 07:56:06;;;;;;;20.20;12.80;;;;;;;;;;5112640;28;20197;-66
2023/03/10 07:58:33;;;;;;;26.27;13.20;;;;;;;;;;5131014;27;20197;-66
2023/03/10 08:01:01;;;;;;;20.25;13.00;;;;;;;;;;5137048;27;20213;-66
2023/03/10 08:03:29;;;;;;;19.52;12.15;;;;;;;;;;5137106;27;20272;-66
2023/03/10 08:05:58;;;;;;;17.73;11.23;;;;;;;;;;5137344;27;20188;-66
2023/03/10 08:08:26;;;;;;;21.42;11.18;;;;;;;;;;5137241;27;20201;-66
2023/03/10 08:11:00;;;;;;;21.83;13.13;;;;;;;;;;5137161;27;20541;-66
2023/03/10 08:13:29;;;;;;;24.75;11.55;;;;;;;;;;5137152;27;20536;-66
2023/03/10 08:15:56;;;;;;;15.57;10.88;;;;;;;;;;5137159;27;20196;-66
2023/03/10 08:18:24;;;;;;;17.75;11.10;;;;;;;;;;5137063;27;20194;-66
2023/03/10 08:20:52;;;;;;;20.08;10.90;;;;;;;;;;5137304;27;20305;-66
2023/03/10 08:23:19;;;;;;;17.60;11.20;;;;;;;;;;5136636;27;20543;-67
2023/03/10 08:25:47;;;;;;;16.98;11.32;;;;;;;;;;5136709;27;20279;-67
2023/03/10 08:28:14;;;;;;;14.40;10.95;;;;;;;;;;5136909;27;20212;-66
2023/03/10 08:30:43;;;;;;;14.75;10.38;;;;;;;;;;5136773;27;20223;-67
2023/03/10 08:33:10;;;;;;;12.30;9.00;;;;;;;;;;5136825;27;20188;-66
2023/03/10 08:35:38;;;;;;;16.30;11.10;;;;;;;;;;5136483;27;20229;-67
2023/03/10 08:38:05;;;;;;;17.45;10.18;;;;;;;;;;5136899;27;20250;-67
2023/03/10 08:40:33;;;;;;;15.93;10.50;;;;;;;;;;5136236;27;20226;-67
2023/03/10 08:43:00;;;;;;;15.38;11.20;;;;;;;;;;5136225;27;20195;-66
2023/03/10 08:45:27;;;;;;;13.90;9.55;;;;;;;;;;5136293;27;20661;-66
2023/03/10 08:47:56;;;;;;;14.98;9.40;;;;;;;;;;5136599;27;20585;-66
2023/03/10 08:50:23;;;;;;;16.20;11.20;;;;;;;;;;5136360;27;20190;-66
2023/03/10 08:52:50;;;;;;;14.63;9.98;;;;;;;;;;5136110;27;20190;-67
2023/03/10 08:55:17;;;;;;;15.43;10.75;;;;;;;;;;5136048;27;20188;-67
2023/03/10 08:57:45;;;;;;;14.57;9.60;;;;;;;;;;5135981;27;20184;-67
2023/03/10 09:00:12;;;;;;;11.75;9.15;;;;;;;;;;5135915;27;20647;-67
2023/03/10 09:02:40;;;;;;;15.98;8.55;;;;;;;;;;5135926;27;20249;-67
2023/03/10 09:05:09;;;;;;;14.73;10.02;;;;;;;;;;5136438;27;20222;-67
2023/03/10 09:07:36;;;;;;;10.20;8.57;;;;;;;;;;5136144;27;20495;-67
2023/03/10 09:10:04;;;;;;;14.27;9.52;;;;;;;;;;5135525;27;20195;-67
2023/03/10 09:12:31;;;;;;;15.98;10.05;;;;;;;;;;5135834;27;20648;-67
2023/03/10 09:14:59;;;;;;;15.70;10.20;;;;;;;;;;5136171;27;20555;-67
2023/03/10 09:17:27;;;;;;;13.85;10.90;;;;;;;;;;5135858;27;20192;-67
2023/03/10 09:19:54;;;;;;;18.02;9.80;;;;;;;;;;5135949;27;20301;-66
2023/03/10 09:22:23;;;;;;;13.43;10.32;;;;;;;;;;5136123;27;20199;-67
2023/03/10 09:24:50;;;;;;;12.25;9.25;;;;;;;;;;5135798;27;20198;-67
2023/03/10 09:27:17;;;;;;;16.48;10.18;;;;;;;;;;5135848;27;20187;-67
2023/03/10 09:29:44;;;;;;;17.13;11.15;;;;;;;;;;5135920;27;20196;-67
2023/03/10 09:32:12;;;;;;;14.30;11.18;;;;;;;;;;5135882;27;20197;-67
2023/03/10 09:34:39;;;;;;;17.35;10.73;;;;;;;;;;5135861;27;20191;-67
2023/03/10 09:37:06;;;;;;;16.67;10.65;;;;;;;;;;5135820;27;20213;-67
2023/03/10 09:39:35;;;;;;;13.82;9.98;;;;;;;;;;5135310;27;20190;-67
2023/03/10 09:42:09;;;;;;;15.68;11.13;;;;;;;;;;5135394;27;20188;-67
2023/03/10 09:44:41;;;;;;;12.80;10.95;;;;;;;;;;5135480;27;20269;-67
2023/03/10 09:47:19;;;;;;;17.55;11.02;;;;;;;;;;5135768;27;20175;-67
2023/03/10 09:49:50;;;;;;;13.65;10.73;;;;;;;;;;5135341;27;20625;-67
2023/03/10 09:52:21;;;;;;;15.55;11.82;;;;;;;;;;5135338;27;20180;-66
2023/03/10 09:54:56;;;;;;;15.13;10.45;;;;;;;;;;5134815;27;20176;-67
2023/03/10 09:57:24;;;;;;;17.15;12.27;;;;;;;;;;5135546;27;20196;-68
2023/03/10 09:59:52;;;;;;;16.42;12.40;;;;;;;;;;5135393;27;20556;-67
2023/03/10 10:02:22;;;;;;;18.10;10.98;;;;;;;;;;5135310;27;20198;-67
2023/03/10 10:04:52;;;;;;;22.45;14.38;;;;;;;;;;5135244;27;20228;-67
2023/03/10 10:07:21;;;;;;;15.88;10.80;;;;;;;;;;5135184;27;20273;-67
2023/03/10 10:09:52;;;;;;;15.60;10.43;;;;;;;;;;5135056;27;20702;-66
2023/03/10 10:12:22;;;;;;;14.80;10.32;;;;;;;;;;5134908;27;20179;-67
2023/03/10 10:14:49;;;;;;;12.60;9.70;;;;;;;;;;5134971;27;20187;-65
2023/03/10 10:17:20;;;;;;;11.55;8.45;;;;;;;;;;5134563;27;20285;-67
2023/03/10 10:19:48;;;;;;;9.50;7.57;;;;;;;;;;5134298;27;20184;-66
2023/03/10 10:22:20;;;;;;;12.77;7.88;;;;;;;;;;5134112;27;20721;-66
2023/03/10 10:25:02;;;;;;;8.23;7.43;;;;;;;;;;5134735;27;20198;-66
2023/03/10 10:27:32;;;;;;;7.95;6.45;;;;;;;;;;5131773;27;20199;-66
2023/03/10 10:30:00;;;;;;;8.70;6.28;;;;;;;;;;5134525;27;20190;-66
2023/03/10 10:32:27;;;;;;;6.45;5.80;;;;;;;;;;5134189;27;20663;-67
2023/03/10 10:35:12;;;;;;;6.95;6.25;;;;;;;;;;5134031;27;20240;-66
2023/03/10 10:37:41;;;;;;;10.63;5.68;;;;;;;;;;5134432;27;20179;-66
2023/03/10 10:40:22;;;;;;;6.53;5.28;;;;;;;;;;5134028;27;20211;-66
2023/03/10 10:42:53;;;;;;;6.20;4.82;;;;;;;;;;5134400;27;20232;-66
2023/03/10 10:45:25;;;;;;;5.00;4.50;;;;;;;;;;5134660;27;20193;-66
2023/03/10 10:47:54;;;;;;;9.68;5.63;;;;;;;;;;5134526;27;20204;-67
2023/03/10 10:50:23;;;;;;;6.90;5.40;;;;;;;;;;5134248;27;20653;-67
2023/03/10 10:52:52;;;;;;;6.32;5.72;;;;;;;;;;5134260;27;20291;-67
2023/03/10 10:55:26;;;;;;;6.05;5.45;;;;;;;;;;5134305;27;20199;-65
2023/03/10 10:57:59;;;;;;;5.88;5.28;;;;;;;;;;5133824;27;20191;-65
2023/03/10 11:00:27;;;;;;;6.63;5.90;;;;;;;;;;5134134;27;20225;-65
2023/03/10 11:02:54;;;;;;;7.40;6.22;;;;;;;;;;5133961;27;20298;-65
2023/03/10 11:05:22;;;;;;;6.68;5.93;;;;;;;;;;5133751;27;20710;-66
2023/03/10 11:07:51;;;;;;;6.85;6.03;;;;;;;;;;5134176;27;20191;-68
2023/03/10 11:10:19;;;;;;;7.43;6.40;;;;;;;;;;5133655;27;20282;-67
2023/03/10 11:13:04;;;;;;;6.20;5.50;;;;;;;;;;5133765;27;20683;-67
2023/03/10 11:15:34;;;;;;;6.70;5.50;;;;;;;;;;5134145;27;20228;-67
2023/03/10 11:18:04;;;;;;;6.88;6.15;;;;;;;;;;5134271;27;20198;-67
2023/03/10 11:20:34;;;;;;;7.65;6.00;;;;;;;;;;5133746;27;20221;-67
2023/03/10 11:23:07;;;;;;;7.85;6.38;;;;;;;;;;5134263;27;20183;-67
2023/03/10 11:25:36;;;;;;;14.50;7.13;;;;;;;;;;5133820;28;20194;-67
2023/03/10 11:28:27;;;;;;;10.60;6.75;;;;;;;;;;5133810;28;20306;-67
2023/03/10 11:30:59;;;;;;;7.28;6.25;;;;;;;;;;5113572;28;20198;-67
2023/03/10 11:33:31;;;;;;;8.00;6.57;;;;;;;;;;5135050;27;20192;-67
2023/03/10 11:36:04;;;;;;;7.03;6.32;;;;;;;;;;5138478;27;20187;-67
2023/03/10 11:38:35;;;;;;;7.75;6.93;;;;;;;;;;5138321;27;20607;-67
2023/03/10 11:41:04;;;;;;;7.80;6.90;;;;;;;;;;5138199;27;20210;-66
2023/03/10 11:43:35;;;;;;;7.88;6.90;;;;;;;;;;5137943;27;20187;-67
2023/03/10 11:46:06;;;;;;;11.55;7.90;;;;;;;;;;5138133;27;20228;-66
2023/03/10 11:48:51;;;;;;;7.28;6.28;;;;;;;;;;5137656;27;20180;-67
2023/03/10 11:51:19;;;;;;;7.78;7.03;;;;;;;;;;5137949;27;20226;-67
2023/03/10 11:53:48;;;;;;;10.05;6.88;;;;;;;;;;5137759;27;20201;-66
2023/03/10 11:56:17;;;;;;;6.25;5.65;;;;;;;;;;5135938;27;20632;-68
2023/03/10 11:58:47;;;;;;;8.40;6.22;;;;;;;;;;5137562;27;20194;-67
2023/03/10 12:01:18;;;;;;;8.13;6.32;;;;;;;;;;5137629;27;20206;-66
2023/03/10 12:03:49;;;;;;;7.90;6.00;;;;;;;;;;5137021;27;20230;-66
2023/03/10 12:06:18;;;;;;;9.52;6.10;;;;;;;;;;5137354;27;20185;-67
2023/03/10 12:08:45;;;;;;;11.07;5.25;;;;;;;;;;5137336;27;20191;-66
2023/03/10 12:11:15;;;;;;;6.50;5.90;;;;;;;;;;5137624;27;20195;-66
2023/03/10 12:13:44;;;;;;;8.80;6.05;;;;;;;;;;5137454;27;20191;-66
2023/03/10 12:16:15;;;;;;;7.15;5.72;;;;;;;;;;5137127;27;20715;-66
2023/03/10 12:18:44;;;;;;;7.35;5.75;;;;;;;;;;5137393;27;20176;-66
2023/03/10 12:21:16;;;;;;;19.35;8.30;;;;;;;;;;5137349;27;20220;-66
2023/03/10 12:23:43;;;;;;;10.20;7.85;;;;;;;;;;5137126;27;20192;-66
2023/03/10 12:26:11;;;;;;;11.40;10.15;;;;;;;;;;5136795;27;20197;-66
2023/03/10 12:28:38;;;;;;;10.27;8.65;;;;;;;;;;5136933;27;20279;-66
2023/03/10 12:31:05;;;;;;;11.05;9.15;;;;;;;;;;5136907;27;20206;-67
2023/03/10 12:33:51;;;;;;;14.27;11.10;;;;;;;;;;5136733;27;20194;-66
2023/03/10 12:36:34;;;;;;;12.70;10.73;;;;;;;;;;5136855;27;20524;-66
2023/03/10 12:39:02;;;;;;;14.85;11.88;;;;;;;;;;5137019;27;20184;-66
2023/03/10 12:41:49;;;;;;;16.63;12.23;;;;;;;;;;5137042;27;20222;-66
2023/03/10 12:44:40;;;;;;;17.67;12.23;;;;;;;;;;5135883;27;20184;-67
2023/03/10 12:47:23;;;;;;;18.15;12.60;;;;;;;;;;5116297;27;20191;-66
2023/03/10 12:49:53;;;;;;;17.17;11.95;;;;;;;;;;5136344;27;20185;-66
2023/03/10 12:52:27;;;;;;;18.70;13.38;;;;;;;;;;5136592;27;20183;-66
2023/03/10 12:54:56;;;;;;;17.33;11.68;;;;;;;;;;5136602;27;20189;-66
2023/03/10 12:57:29;;;;;;;14.55;12.13;;;;;;;;;;5136439;27;20518;-67
2023/03/10 12:59:59;;;;;;;12.43;11.02;;;;;;;;;;5136697;27;20181;-66
2023/03/10 13:02:28;;;;;;;10.88;9.77;;;;;;;;;;5136141;27;20215;-66
2023/03/10 13:05:00;;;;;;;14.30;11.70;;;;;;;;;;5136570;27;20225;-66
2023/03/10 13:07:28;;;;;;;19.13;11.02;;;;;;;;;;5135955;27;20645;-66
2023/03/10 13:09:57;;;;;;;15.60;11.52;;;;;;;;;;5136416;27;20604;-66
2023/03/10 13:12:27;;;;;;;15.57;11.10;;;;;;;;;;5135758;27;20198;-66
2023/03/10 13:14:57;;;;;;;16.45;11.85;;;;;;;;;;5135875;27;20195;-66
2023/03/10 13:17:25;;;;;;;15.95;12.00;;;;;;;;;;5136098;27;20536;-67
2023/03/10 13:20:00;;;;;;;21.45;14.05;;;;;;;;;;5136234;27;20257;-66
2023/03/10 13:22:28;;;;;;;23.33;14.32;;;;;;;;;;5135837;27;20384;-66
2023/03/10 13:25:01;;;;;;;18.98;12.88;;;;;;;;;;5135910;27;20188;-66
2023/03/10 13:27:30;;;;;;;22.73;14.90;;;;;;;;;;5135980;27;20180;-66
2023/03/10 13:29:58;;;;;;;20.63;15.80;;;;;;;;;;5135518;27;20195;-66
2023/03/10 13:32:25;;;;;;;24.80;13.23;;;;;;;;;;5135696;27;20192;-66
2023/03/10 13:34:53;;;;;;;25.00;13.13;;;;;;;;;;5136154;27;20203;-67
2023/03/10 13:37:20;;;;;;;15.73;12.60;;;;;;;;;;5136157;27;20610;-68
2023/03/10 13:39:48;;;;;;;18.17;12.07;;;;;;;;;;5135845;27;20563;-67
2023/03/10 13:42:19;;;;;;;16.20;12.90;;;;;;;;;;5135473;27;20221;-68
2023/03/10 13:44:47;;;;;;;20.75;12.02;;;;;;;;;;5136166;27;20186;-66
2023/03/10 13:47:16;;;;;;;15.80;11.38;;;;;;;;;;5135463;27;20307;-67
2023/03/10 13:49:46;;;;;;;14.20;10.90;;;;;;;;;;5135439;27;20223;-66
2023/03/10 13:52:14;;;;;;;12.48;9.80;;;;;;;;;;5134957;27;20192;-68
2023/03/10 13:54:41;;;;;;;11.43;8.90;;;;;;;;;;5135217;27;20209;-66
2023/03/10 13:57:15;;;;;;;10.93;8.90;;;;;;;;;;5135121;27;20201;-66
2023/03/10 13:59:43;;;;;;;11.50;9.82;;;;;;;;;;5135303;27;20186;-66
2023/03/10 14:02:14;;;;;;;9.73;8.65;;;;;;;;;;5135215;27;20241;-67
2023/03/10 14:04:44;;;;;;;8.80;7.85;;;;;;;;;;5135064;27;20220;-67
2023/03/10 14:07:12;;;;;;;9.60;7.90;;;;;;;;;;5134730;27;20584;-67
2023/03/10 14:09:39;;;;;;;9.00;8.10;;;;;;;;;;5134959;27;20188;-66
2023/03/10 14:12:07;;;;;;;9.27;8.35;;;;;;;;;;5135486;27;20202;-66
2023/03/10 14:14:37;;;;;;;15.65;11.18;;;;;;;;;;5135180;27;20552;-67
2023/03/10 14:17:05;;;;;;;11.23;9.40;;;;;;;;;;5135293;27;20188;-67
2023/03/10 14:19:53;;;;;;;8.05;7.25;;;;;;;;;;5134592;27;20219;-67
2023/03/10 14:22:40;;;;;;;9.15;7.63;;;;;;;;;;5134406;27;20294;-67
2023/03/10 14:25:09;;;;;;;8.95;7.65;;;;;;;;;;5134691;27;20195;-67
2023/03/10 14:27:37;;;;;;;9.60;7.00;;;;;;;;;;5134424;27;20709;-67
2023/03/10 14:30:12;;;;;;;10.80;8.02;;;;;;;;;;5134304;27;20195;-66
2023/03/10 14:32:40;;;;;;;7.20;6.50;;;;;;;;;;5134636;27;20190;-66